createdAt,value
2023-05-02T00:02:23.022Z,15.48
2023-05-02T00:04:49.569Z,15.41
2023-05-02T00:07:15.970Z,15.34
2023-05-02T00:09:42.433Z,15.28
2023-05-02T00:12:08.825Z,15.23
2023-05-02T00:14:35.282Z,15.22
2023-05-02T00:17:03.175Z,15.19
2023-05-02T00:19:29.684Z,15.20
2023-05-02T00:21:56.117Z,15.19
2023-05-02T00:24:22.511Z,15.14
2023-05-02T00:26:48.994Z,15.11
2023-05-02T00:29:15.476Z,15.13
2023-05-02T00:31:41.932Z,15.11
2023-05-02T00:34:08.500Z,15.11
2023-05-02T00:36:34.953Z,15.08
2023-05-02T00:39:04.330Z,15.08
2023-05-02T00:41:30.752Z,15.10
2023-05-02T00:43:57.286Z,15.08
2023-05-02T00:46:23.867Z,15.11
2023-05-02T00:48:50.525Z,15.14
2023-05-02T00:51:17.037Z,15.08
2023-05-02T00:53:43.508Z,15.07
2023-05-02T00:56:09.973Z,15.00
2023-05-02T00:58:36.507Z,14.94
2023-05-02T01:01:02.980Z,14.96
2023-05-02T01:03:29.524Z,14.96
2023-05-02T01:05:56.045Z,14.90
2023-05-02T01:08:22.430Z,14.90
2023-05-02T01:10:48.960Z,14.88
2023-05-02T01:13:15.401Z,14.88
2023-05-02T01:15:41.864Z,14.94
2023-05-02T01:18:08.366Z,14.96
2023-05-02T01:20:34.835Z,14.95
2023-05-02T01:23:01.251Z,14.99
2023-05-02T01:25:27.643Z,14.92
2023-05-02T01:27:54.117Z,14.91
2023-05-02T01:30:20.646Z,14.94
2023-05-02T01:32:47.198Z,14.92
2023-05-02T01:35:13.684Z,14.85
2023-05-02T01:37:40.225Z,14.81
2023-05-02T01:40:06.638Z,14.71
2023-05-02T01:42:33.084Z,14.76
2023-05-02T01:44:59.428Z,14.76
2023-05-02T01:47:27.312Z,14.79
2023-05-02T01:49:53.736Z,14.77
2023-05-02T01:52:20.209Z,14.76
2023-05-02T01:54:46.629Z,14.77
2023-05-02T01:57:13.043Z,14.83
2023-05-02T01:59:39.581Z,14.84
2023-05-02T02:02:11.180Z,14.81
2023-05-02T02:04:37.750Z,14.83
2023-05-02T02:07:04.253Z,14.71
2023-05-02T02:09:30.738Z,14.75
2023-05-02T02:11:57.163Z,14.77
2023-05-02T02:14:23.593Z,14.83
2023-05-02T02:16:50.118Z,14.85
2023-05-02T02:19:16.709Z,14.85
2023-05-02T02:21:43.172Z,14.85
2023-05-02T02:24:09.655Z,14.86
2023-05-02T02:26:36.133Z,14.82
2023-05-02T02:29:02.684Z,14.78
2023-05-02T02:31:29.262Z,14.78
2023-05-02T02:33:55.797Z,14.77
2023-05-02T02:36:22.298Z,14.81
2023-05-02T02:38:48.756Z,14.74
2023-05-02T02:41:15.265Z,14.68
2023-05-02T02:43:41.732Z,14.65
2023-05-02T02:46:08.283Z,14.66
2023-05-02T02:48:34.805Z,14.66
2023-05-02T02:51:01.186Z,14.61
2023-05-02T02:53:27.607Z,14.61
2023-05-02T02:55:54.032Z,14.57
2023-05-02T02:58:20.462Z,14.52
2023-05-02T03:00:46.836Z,14.50
2023-05-02T03:03:13.473Z,14.52
2023-05-02T03:05:40.043Z,14.55
2023-05-02T03:08:06.468Z,14.42
2023-05-02T03:10:32.980Z,14.39
2023-05-02T03:15:39.823Z,14.49
2023-05-02T03:18:06.322Z,14.55
2023-05-02T03:20:38.882Z,14.52
2023-05-02T03:23:05.448Z,14.39
2023-05-02T03:25:31.953Z,14.43
2023-05-02T03:27:58.381Z,14.48
2023-05-02T03:30:25.139Z,14.51
2023-05-02T03:32:57.537Z,14.52
2023-05-02T03:35:25.947Z,14.51
2023-05-02T03:37:52.434Z,14.48
2023-05-02T03:40:18.858Z,14.46
2023-05-02T03:42:45.300Z,14.46
2023-05-02T03:45:11.744Z,14.41
2023-05-02T03:47:38.258Z,14.36
2023-05-02T03:50:04.801Z,14.33
2023-05-02T03:52:31.286Z,14.23
2023-05-02T03:54:57.803Z,14.24
2023-05-02T03:57:24.229Z,14.21
2023-05-02T03:59:52.371Z,14.15
2023-05-02T04:02:18.828Z,14.19
2023-05-02T04:04:45.376Z,14.14
2023-05-02T04:07:11.853Z,14.15
2023-05-02T04:09:38.287Z,14.12
2023-05-02T04:12:04.760Z,14.07
2023-05-02T04:14:31.137Z,14.10
2023-05-02T04:16:57.609Z,14.10
2023-05-02T04:19:24.099Z,14.03
2023-05-02T04:21:50.604Z,13.97
2023-05-02T04:24:16.985Z,14.02
2023-05-02T04:26:43.450Z,14.06
2023-05-02T04:29:10.010Z,14.04
2023-05-02T04:31:36.601Z,14.03
2023-05-02T04:34:03.281Z,14.07
2023-05-02T04:36:29.828Z,14.09
2023-05-02T04:38:56.404Z,14.12
2023-05-02T04:41:22.979Z,14.15
2023-05-02T04:43:49.558Z,14.14
2023-05-02T04:46:15.988Z,14.12
2023-05-02T04:48:42.442Z,14.13
2023-05-02T04:51:08.845Z,14.12
2023-05-02T04:53:35.242Z,14.14
2023-05-02T04:56:01.705Z,14.15
2023-05-02T04:58:28.488Z,14.15
2023-05-02T05:00:57.110Z,14.13
2023-05-02T05:03:32.789Z,14.13
2023-05-02T05:08:50.838Z,14.11
2023-05-02T05:11:17.347Z,14.09
2023-05-02T05:13:43.872Z,14.09
2023-05-02T05:16:13.500Z,14.08
2023-05-02T05:18:44.443Z,14.08
2023-05-02T05:21:10.912Z,14.11
2023-05-02T05:23:37.323Z,14.13
2023-05-02T05:26:03.767Z,14.19
2023-05-02T05:28:30.306Z,14.08
2023-05-02T05:30:56.762Z,13.81
2023-05-02T05:33:23.257Z,13.90
2023-05-02T05:35:49.724Z,13.96
2023-05-02T05:38:16.230Z,14.00
2023-05-02T05:43:32.956Z,14.06
2023-05-02T05:45:59.405Z,14.00
2023-05-02T05:48:25.874Z,13.96
2023-05-02T05:53:42.884Z,13.65
2023-05-02T05:59:11.789Z,13.77
2023-05-02T06:01:38.267Z,13.84
2023-05-02T06:04:05.055Z,13.86
2023-05-02T06:06:31.701Z,13.89
2023-05-02T06:08:58.205Z,13.92
2023-05-02T06:11:24.647Z,13.94
2023-05-02T06:13:51.081Z,13.94
2023-05-02T06:16:17.648Z,13.94
2023-05-02T06:18:44.250Z,13.97
2023-05-02T06:21:10.688Z,13.96
2023-05-02T06:23:40.108Z,13.98
2023-05-02T06:26:06.548Z,13.96
2023-05-02T06:28:32.997Z,13.98
2023-05-02T06:30:59.669Z,14.04
2023-05-02T06:33:26.128Z,14.09
2023-05-02T06:35:52.496Z,14.13
2023-05-02T06:38:19.100Z,14.16
2023-05-02T06:40:45.523Z,14.18
2023-05-02T06:43:11.869Z,14.19
2023-05-02T06:45:38.215Z,14.19
2023-05-02T06:48:04.652Z,14.22
2023-05-02T06:50:37.195Z,14.22
2023-05-02T06:53:03.669Z,14.27
2023-05-02T06:55:30.096Z,14.31
2023-05-02T06:57:56.469Z,14.28
2023-05-02T07:00:23.002Z,14.24
2023-05-02T07:02:52.217Z,14.21
2023-05-02T07:05:26.853Z,14.17
2023-05-02T07:07:53.332Z,14.15
2023-05-02T07:10:19.856Z,14.22
2023-05-02T07:12:46.363Z,14.27
2023-05-02T07:15:12.905Z,14.18
2023-05-02T07:17:39.373Z,14.16
2023-05-02T07:20:05.962Z,14.18
2023-05-02T07:22:32.423Z,14.18
2023-05-02T07:24:59.877Z,14.22
2023-05-02T07:27:41.620Z,14.28
2023-05-02T07:30:08.670Z,14.32
2023-05-02T07:32:35.263Z,14.36
2023-05-02T07:35:01.952Z,14.35
2023-05-02T07:37:28.428Z,14.38
2023-05-02T07:39:54.882Z,14.38
2023-05-02T07:42:22.668Z,14.38
2023-05-02T07:44:53.009Z,14.40
2023-05-02T07:47:19.565Z,14.43
2023-05-02T07:49:45.993Z,14.45
2023-05-02T07:52:12.428Z,14.48
2023-05-02T07:54:38.877Z,14.49
2023-05-02T07:57:05.341Z,14.51
2023-05-02T07:59:31.832Z,14.53
2023-05-02T08:01:58.323Z,14.51
2023-05-02T08:04:28.360Z,14.56
2023-05-02T08:06:55.125Z,14.61
2023-05-02T08:09:24.331Z,14.63
2023-05-02T08:11:50.867Z,14.65
2023-05-02T08:14:17.285Z,14.62
2023-05-02T08:16:45.576Z,14.69
2023-05-02T08:19:12.995Z,14.69
2023-05-02T08:21:39.559Z,14.70
2023-05-02T08:24:06.039Z,14.75
2023-05-02T08:26:32.471Z,14.79
2023-05-02T08:28:59.000Z,14.82
2023-05-02T08:31:25.528Z,14.81
2023-05-02T08:33:52.000Z,14.87
2023-05-02T08:36:18.476Z,14.98
2023-05-02T08:38:44.987Z,15.09
2023-05-02T08:41:11.472Z,15.06
2023-05-02T08:43:37.906Z,15.14
2023-05-02T08:46:04.352Z,15.14
2023-05-02T08:48:30.817Z,15.19
2023-05-02T08:50:57.283Z,15.09
2023-05-02T08:53:23.694Z,15.21
2023-05-02T08:55:50.161Z,15.32
2023-05-02T08:58:17.712Z,15.41
2023-05-02T09:00:44.283Z,15.49
2023-05-02T09:03:10.876Z,15.53
2023-05-02T09:05:37.385Z,15.55
2023-05-02T09:08:03.831Z,15.64
2023-05-02T09:10:30.292Z,15.64
2023-05-02T09:12:56.696Z,15.61
2023-05-02T09:15:23.191Z,15.52
2023-05-02T09:17:49.685Z,15.59
2023-05-02T09:20:16.179Z,15.69
2023-05-02T09:22:42.585Z,15.77
2023-05-02T09:25:09.072Z,15.83
2023-05-02T09:27:35.612Z,15.83
2023-05-02T09:30:02.153Z,15.86
2023-05-02T09:32:28.749Z,15.79
2023-05-02T09:34:55.261Z,15.96
2023-05-02T09:37:21.654Z,16.04
2023-05-02T09:39:48.136Z,16.09
2023-05-02T09:42:14.601Z,16.06
2023-05-02T09:44:41.076Z,16.10
2023-05-02T09:47:07.492Z,16.01
2023-05-02T09:49:34.080Z,16.02
2023-05-02T09:52:00.589Z,16.00
2023-05-02T09:54:27.068Z,16.02
2023-05-02T09:56:53.549Z,16.14
2023-05-02T09:59:20.057Z,15.94
2023-05-02T10:01:46.530Z,16.05
2023-05-02T10:04:13.061Z,16.03
2023-05-02T10:06:41.222Z,16.13
2023-05-02T10:09:07.728Z,16.23
2023-05-02T10:11:34.256Z,16.33
2023-05-02T10:14:00.751Z,16.40
2023-05-02T10:16:27.221Z,16.24
2023-05-02T10:18:53.729Z,16.37
2023-05-02T10:21:22.953Z,16.44
2023-05-02T10:23:49.386Z,16.41
2023-05-02T10:26:15.936Z,16.40
2023-05-02T10:28:42.503Z,16.34
2023-05-02T10:31:09.017Z,16.45
2023-05-02T10:33:35.537Z,16.52
2023-05-02T10:36:01.993Z,16.54
2023-05-02T10:38:35.779Z,16.56
2023-05-02T10:41:02.262Z,16.67
2023-05-02T10:43:28.714Z,16.70
2023-05-02T10:45:55.191Z,16.79
2023-05-02T10:48:21.646Z,16.83
2023-05-02T10:50:48.093Z,16.87
2023-05-02T10:53:14.586Z,16.81
2023-05-02T10:55:40.960Z,16.93
2023-05-02T10:58:07.423Z,16.87
2023-05-02T11:00:34.137Z,16.89
2023-05-02T11:03:00.926Z,16.93
2023-05-02T11:05:27.392Z,17.15
2023-05-02T11:07:53.820Z,17.15
2023-05-02T11:10:20.207Z,17.10
2023-05-02T11:12:46.629Z,17.21
2023-05-02T11:15:13.095Z,17.37
2023-05-02T11:17:39.625Z,17.57
2023-05-02T11:20:06.093Z,17.67
2023-05-02T11:22:32.533Z,17.61
2023-05-02T11:24:59.160Z,17.59
2023-05-02T11:27:26.627Z,17.65
2023-05-02T11:29:53.026Z,17.82
2023-05-02T11:32:21.302Z,17.84
2023-05-02T11:34:47.894Z,17.86
2023-05-02T11:37:14.321Z,17.93
2023-05-02T11:39:40.736Z,17.83
2023-05-02T11:42:07.090Z,17.89
2023-05-02T11:44:33.545Z,17.98
2023-05-02T11:46:59.940Z,18.14
2023-05-02T11:52:10.379Z,18.07
2023-05-02T11:54:36.811Z,17.99
2023-05-02T11:57:03.212Z,18.11
2023-05-02T11:59:29.606Z,18.15
2023-05-02T12:01:56.032Z,18.13
2023-05-02T12:04:22.597Z,18.13
2023-05-02T12:06:59.989Z,18.16
2023-05-02T12:09:26.489Z,18.43
2023-05-02T12:11:53.022Z,18.37
2023-05-02T12:14:19.476Z,18.45
2023-05-02T12:16:46.090Z,18.49
2023-05-02T12:19:12.675Z,18.56
2023-05-02T12:21:39.143Z,18.62
2023-05-02T12:24:08.773Z,18.56
2023-05-02T12:26:42.601Z,18.67
2023-05-02T12:29:09.120Z,18.57
2023-05-02T12:31:35.639Z,18.74
2023-05-02T12:36:42.399Z,18.84
2023-05-02T12:39:08.838Z,18.92
2023-05-02T12:41:35.222Z,18.93
2023-05-02T12:44:01.768Z,19.12
2023-05-02T12:46:28.246Z,19.24
2023-05-02T12:48:54.658Z,19.13
2023-05-02T12:51:21.116Z,19.19
2023-05-02T12:53:52.253Z,19.14
2023-05-02T12:56:18.714Z,19.21
2023-05-02T12:58:52.690Z,19.25
2023-05-02T13:01:19.149Z,19.24
2023-05-02T13:03:45.700Z,19.10
2023-05-02T13:06:12.157Z,19.25
2023-05-02T13:08:38.639Z,19.39
2023-05-02T13:11:05.066Z,19.45
2023-05-02T13:13:33.653Z,19.49
2023-05-02T13:16:02.643Z,19.53
2023-05-02T13:18:29.160Z,19.42
2023-05-02T13:20:55.632Z,19.55
2023-05-02T13:23:22.138Z,19.68
2023-05-02T13:25:48.517Z,19.76
2023-05-02T13:28:14.929Z,19.56
2023-05-02T13:30:41.447Z,19.56
2023-05-02T13:33:07.994Z,19.76
2023-05-02T13:35:35.389Z,19.69
2023-05-02T13:38:01.922Z,19.49
2023-05-02T13:40:28.396Z,19.44
2023-05-02T13:42:54.886Z,19.35
2023-05-02T13:45:21.371Z,19.28
2023-05-02T13:47:47.882Z,19.34
2023-05-02T13:50:14.287Z,19.51
2023-05-02T13:52:40.665Z,19.45
2023-05-02T13:55:07.100Z,19.43
2023-05-02T13:57:33.743Z,19.52
2023-05-02T14:00:00.344Z,19.55
2023-05-02T14:02:27.154Z,19.43
2023-05-02T14:04:53.656Z,19.38
2023-05-02T14:07:20.038Z,19.30
2023-05-02T14:09:46.472Z,19.19
2023-05-02T14:12:12.916Z,19.27
2023-05-02T14:14:40.414Z,19.39
2023-05-02T14:17:06.901Z,19.52
2023-05-02T14:19:33.394Z,19.71
2023-05-02T14:21:59.883Z,19.79
2023-05-02T14:27:07.698Z,19.75
2023-05-02T14:29:34.179Z,19.89
2023-05-02T14:32:04.107Z,20.00
2023-05-02T14:34:30.538Z,20.04
2023-05-02T14:36:57.073Z,20.27
2023-05-02T14:39:23.585Z,20.16
2023-05-02T14:41:49.931Z,20.00
2023-05-02T14:44:16.362Z,19.92
2023-05-02T14:46:42.775Z,19.95
2023-05-02T14:51:49.499Z,19.99
2023-05-02T14:54:15.907Z,20.09
2023-05-02T14:56:42.388Z,20.16
2023-05-02T14:59:08.773Z,20.38
2023-05-02T15:01:40.343Z,20.41
2023-05-02T15:04:08.008Z,20.21
2023-05-02T15:06:35.934Z,20.15
2023-05-02T15:09:03.351Z,20.19
2023-05-02T15:11:29.950Z,20.24
2023-05-02T15:13:58.453Z,20.34
2023-05-02T15:16:25.771Z,20.27
2023-05-02T15:18:52.197Z,20.42
2023-05-02T15:21:18.634Z,20.24
2023-05-02T15:23:47.254Z,20.56
2023-05-02T15:26:14.094Z,20.46
2023-05-02T15:31:21.404Z,20.60
2023-05-02T15:33:48.131Z,20.69
2023-05-02T15:36:14.566Z,20.68
2023-05-02T15:38:41.534Z,20.66
2023-05-02T15:41:08.046Z,20.69
2023-05-02T15:43:34.966Z,20.80
2023-05-02T15:46:03.647Z,20.77
2023-05-02T15:48:30.342Z,20.95
2023-05-02T15:50:56.891Z,20.91
2023-05-02T15:53:23.356Z,20.72
2023-05-02T15:55:49.798Z,20.85
2023-05-02T15:58:16.228Z,20.70
2023-05-02T16:00:42.696Z,21.19
2023-05-02T16:03:09.151Z,23.28
2023-05-02T16:05:35.793Z,24.49
2023-05-02T16:08:07.552Z,25.28
2023-05-02T16:10:34.053Z,24.07
2023-05-02T16:13:00.523Z,25.46
2023-05-02T16:15:27.128Z,26.50
2023-05-02T16:17:53.701Z,26.31
2023-05-02T16:20:20.109Z,25.44
2023-05-02T16:22:46.504Z,24.75
2023-05-02T16:25:27.905Z,24.66
2023-05-02T16:27:54.338Z,23.51
2023-05-02T16:30:20.781Z,23.11
2023-05-02T16:32:47.239Z,25.40
2023-05-02T16:35:13.750Z,26.15
2023-05-02T16:37:40.213Z,26.54
2023-05-02T16:40:07.202Z,25.92
2023-05-02T16:42:33.966Z,25.21
2023-05-02T16:45:00.401Z,24.46
2023-05-02T16:47:26.985Z,24.46
2023-05-02T16:49:53.501Z,24.23
2023-05-02T16:52:19.997Z,24.11
2023-05-02T16:54:46.497Z,23.32
2023-05-02T16:57:12.954Z,22.88
2023-05-02T16:59:39.501Z,22.51
2023-05-02T17:02:06.057Z,22.37
2023-05-02T17:04:32.536Z,21.79
2023-05-02T17:06:59.054Z,21.72
2023-05-02T17:09:25.562Z,21.59
2023-05-02T17:11:52.076Z,21.55
2023-05-02T17:14:18.460Z,21.75
2023-05-02T17:16:44.968Z,22.08
2023-05-02T17:19:11.617Z,22.21
2023-05-02T17:21:38.155Z,22.28
2023-05-02T17:24:05.457Z,22.40
2023-05-02T17:26:39.943Z,22.36
2023-05-02T17:29:06.405Z,22.30
2023-05-02T17:31:32.991Z,22.25
2023-05-02T17:33:59.626Z,22.41
2023-05-02T17:36:26.251Z,22.63
2023-05-02T17:38:52.765Z,22.78
2023-05-02T17:41:19.272Z,22.85
2023-05-02T17:43:45.986Z,22.75
2023-05-02T17:46:13.876Z,22.33
2023-05-02T17:48:40.448Z,22.19
2023-05-02T17:51:07.026Z,22.15
2023-05-02T17:53:33.650Z,22.04
2023-05-02T17:56:00.128Z,21.59
2023-05-02T17:58:26.542Z,21.50
2023-05-02T18:00:53.028Z,21.20
2023-05-02T18:03:20.682Z,21.01
2023-05-02T18:05:47.158Z,20.88
2023-05-02T18:08:13.751Z,20.76
2023-05-02T18:10:40.168Z,20.72
2023-05-02T18:13:06.737Z,20.61
2023-05-02T18:15:33.168Z,20.74
2023-05-02T18:17:59.645Z,20.60
2023-05-02T18:20:26.107Z,20.79
2023-05-02T18:22:52.612Z,20.87
2023-05-02T18:25:19.070Z,20.69
2023-05-02T18:27:45.531Z,20.54
2023-05-02T18:30:12.038Z,19.97
2023-05-02T18:32:38.533Z,20.02
2023-05-02T18:35:05.060Z,19.65
2023-05-02T18:37:31.819Z,19.31
2023-05-02T18:39:58.309Z,19.35
2023-05-02T18:42:24.924Z,19.53
2023-05-02T18:44:51.820Z,19.39
2023-05-02T18:47:18.268Z,19.29
2023-05-02T18:49:44.739Z,19.31
2023-05-02T18:52:11.695Z,19.38
2023-05-02T18:54:39.473Z,19.08
2023-05-02T18:57:10.782Z,19.39
2023-05-02T18:59:40.252Z,19.12
2023-05-02T19:02:06.677Z,18.95
2023-05-02T19:04:34.647Z,18.75
2023-05-02T19:07:01.046Z,18.79
2023-05-02T19:09:27.493Z,18.87
2023-05-02T19:11:54.001Z,18.88
2023-05-02T19:14:21.001Z,18.49
2023-05-02T19:19:27.661Z,18.43
2023-05-02T19:21:54.126Z,18.13
2023-05-02T19:24:20.601Z,18.25
2023-05-02T19:26:47.066Z,18.30
2023-05-02T19:29:13.942Z,18.14
2023-05-02T19:31:40.370Z,18.34
2023-05-02T19:34:06.855Z,18.34
2023-05-02T19:36:33.305Z,18.51
2023-05-02T19:38:59.817Z,18.58
2023-05-02T19:41:26.218Z,18.70
2023-05-02T19:43:52.653Z,18.20
2023-05-02T19:46:19.164Z,18.52
2023-05-02T19:48:45.690Z,18.33
2023-05-02T19:51:12.157Z,18.66
2023-05-02T19:53:38.604Z,18.63
2023-05-02T19:56:05.018Z,18.77
2023-05-02T19:58:34.145Z,18.89
2023-05-02T20:01:00.707Z,18.98
2023-05-02T20:03:27.275Z,18.96
2023-05-02T20:05:53.774Z,19.05
2023-05-02T20:08:21.525Z,19.08
2023-05-02T20:10:49.278Z,19.10
2023-05-02T20:13:15.742Z,19.18
2023-05-02T20:15:42.178Z,19.21
2023-05-02T20:18:08.597Z,19.25
2023-05-02T20:20:35.064Z,19.20
2023-05-02T20:23:01.484Z,19.18
2023-05-02T20:25:27.866Z,19.16
2023-05-02T20:27:54.277Z,19.12
2023-05-02T20:30:20.720Z,19.16
2023-05-02T20:32:47.369Z,18.95
2023-05-02T20:37:54.120Z,19.00
2023-05-02T20:40:20.510Z,18.98
2023-05-02T20:42:46.932Z,18.94
2023-05-02T20:45:13.285Z,18.92
2023-05-02T20:47:39.670Z,18.89
2023-05-02T20:50:06.146Z,18.90
2023-05-02T20:52:40.015Z,18.89
2023-05-02T20:55:06.542Z,18.81
2023-05-02T20:57:33.020Z,18.86
2023-05-02T21:00:07.150Z,18.81
2023-05-02T21:02:33.693Z,18.84
2023-05-02T21:05:00.153Z,18.86
2023-05-02T21:10:06.792Z,18.78
2023-05-02T21:12:33.173Z,18.75
2023-05-02T21:14:59.566Z,18.79
2023-05-02T21:17:26.108Z,18.76
2023-05-02T21:19:52.619Z,18.70
2023-05-02T21:22:19.013Z,18.64
2023-05-02T21:24:45.394Z,18.59
2023-05-02T21:27:11.842Z,18.57
2023-05-02T21:29:38.304Z,18.50
2023-05-02T21:32:04.815Z,18.46
2023-05-02T21:34:31.365Z,18.36
2023-05-02T21:36:57.836Z,18.35
2023-05-02T21:39:24.314Z,18.33
2023-05-02T21:41:50.737Z,18.32
2023-05-02T21:44:17.175Z,18.32
2023-05-02T21:46:46.568Z,18.27
2023-05-02T21:49:15.732Z,18.23
2023-05-02T21:51:42.190Z,18.21
2023-05-02T21:54:08.599Z,18.12
2023-05-02T21:56:34.947Z,18.03
2023-05-02T21:59:01.278Z,17.96
2023-05-02T22:01:27.678Z,17.89
2023-05-02T22:03:54.149Z,17.86
2023-05-02T22:06:20.644Z,17.84
2023-05-02T22:08:48.264Z,17.71
2023-05-02T22:11:14.680Z,17.62
2023-05-02T22:13:41.096Z,17.63
2023-05-02T22:16:07.736Z,17.63
2023-05-02T22:18:34.262Z,17.67
2023-05-02T22:21:00.706Z,17.73
2023-05-02T22:23:27.122Z,17.68
2023-05-02T22:25:53.513Z,17.67
2023-05-02T22:28:19.945Z,17.64
2023-05-02T22:30:46.471Z,17.61
2023-05-02T22:33:12.965Z,17.52
2023-05-02T22:35:39.463Z,17.55
2023-05-02T22:38:05.837Z,17.55
2023-05-02T22:40:32.264Z,17.57
2023-05-02T22:42:58.792Z,17.51
2023-05-02T22:45:25.204Z,17.49
2023-05-02T22:47:51.636Z,17.35
2023-05-02T22:50:18.118Z,17.26
2023-05-02T22:52:44.527Z,17.34
2023-05-02T22:55:11.074Z,17.35
2023-05-02T23:00:17.896Z,17.28
2023-05-02T23:02:44.440Z,17.23
2023-05-02T23:05:10.952Z,17.17
2023-05-02T23:07:37.448Z,17.18
2023-05-02T23:10:04.105Z,17.22
2023-05-02T23:12:30.864Z,17.21
2023-05-02T23:14:58.422Z,17.22
2023-05-02T23:17:32.480Z,17.20
2023-05-02T23:19:59.417Z,17.17
2023-05-02T23:22:25.966Z,17.13
2023-05-02T23:24:52.378Z,17.08
2023-05-02T23:27:18.900Z,17.08
2023-05-02T23:29:45.401Z,17.03
2023-05-02T23:32:11.788Z,16.92
2023-05-02T23:34:38.255Z,16.96
2023-05-02T23:37:04.762Z,16.95
2023-05-02T23:39:31.153Z,16.90
2023-05-02T23:41:57.619Z,16.79
2023-05-02T23:44:24.059Z,16.73
2023-05-02T23:46:50.627Z,16.73
2023-05-02T23:49:17.257Z,16.72
2023-05-02T23:51:43.978Z,16.61
2023-05-02T23:54:14.054Z,16.58
2023-05-02T23:56:49.572Z,16.57
2023-05-02T23:59:22.936Z,16.52
